aviador You're here:

CYIN Decoded Metar

in
Report Time2018-07-22 16:00:00
UTC Time2018-07-22 16:13:57
Flight Rules vfr VFR
WindVRB at 02 kt
Visibility9999 m
Phenomena:N/A
Clouds:N/A
Expected CloudBase > 2,400 ft AGL from Temp-Dew spread
CeilingNone
Temp15°C
Dew Point09°C (68% RH)
AAT14.1°C
QNH1027 hPa
Raw Report
METAR CYIN 221600Z AUTO VRB02KT 9SM CLR 15/09 A3032 RMK SLP264 DENSITY ALT 4100FT=

Extra information for CYIN:More info

Social comments